Time;durP1;ratioP1;P1;durP2;ratioP2;P2;SDS_P1;SDS_P2;PMS_P1;PMS_P2;Temp;Humidity;BMP_temperature;BMP_pressure;BME280_temperature;BME280_humidity;BME280_pressure;Samples;Min_cycle;Max_cycle;Signal;HPM_P1;HPM_P2
2023/12/29 00:00:39;;;;;;;452.67;263.98;;;1.60;99.90;;;;;;4993495;28;20038;-80
2023/12/29 00:03:08;;;;;;;398.38;233.90;;;1.60;99.90;;;;;;4992702;28;20042;-80
2023/12/29 00:05:36;;;;;;;349.73;207.88;;;1.60;99.90;;;;;;4991498;28;20054;-81
2023/12/29 00:08:03;;;;;;;373.23;223.68;;;1.50;99.90;;;;;;4993070;28;20085;-82
2023/12/29 00:10:31;;;;;;;394.55;233.63;;;1.50;99.90;;;;;;4990552;28;20050;-83
2023/12/29 00:12:58;;;;;;;465.90;278.17;;;1.60;99.90;;;;;;4974573;28;20070;-82
2023/12/29 00:15:25;;;;;;;633.50;338.13;;;1.60;99.90;;;;;;4991463;28;20030;-82
2023/12/29 00:17:54;;;;;;;497.83;278.50;;;1.60;99.90;;;;;;4991303;28;20149;-81
2023/12/29 00:20:20;;;;;;;409.75;242.50;;;1.40;99.90;;;;;;4991753;28;20093;-80
2023/12/29 00:22:48;;;;;;;585.60;329.02;;;1.30;99.90;;;;;;4992130;28;20625;-81
2023/12/29 00:25:15;;;;;;;480.85;263.13;;;1.30;99.90;;;;;;4991655;28;20046;-80
2023/12/29 00:27:44;;;;;;;488.02;259.20;;;1.30;99.90;;;;;;4992696;28;20405;-81
2023/12/29 00:30:12;;;;;;;304.50;166.32;;;1.30;99.90;;;;;;4993744;28;20124;-80
2023/12/29 00:32:40;;;;;;;316.25;177.73;;;1.40;99.90;;;;;;4993307;28;20216;-81
2023/12/29 00:35:10;;;;;;;307.20;166.95;;;1.40;99.90;;;;;;4982631;28;20109;-80
2023/12/29 00:37:37;;;;;;;341.52;198.77;;;1.50;99.90;;;;;;4976761;28;20057;-82
2023/12/29 00:40:07;;;;;;;323.05;187.90;;;1.50;99.90;;;;;;4991069;28;20057;-80
2023/12/29 00:42:34;;;;;;;309.55;177.98;;;1.40;99.90;;;;;;4975512;28;20132;-80
2023/12/29 00:45:01;;;;;;;286.25;168.15;;;1.40;99.90;;;;;;4976446;28;20129;-82
2023/12/29 00:47:29;;;;;;;261.30;153.13;;;1.40;99.90;;;;;;4991950;28;20652;-80
2023/12/29 00:49:56;;;;;;;248.57;145.65;;;1.50;99.90;;;;;;4998345;28;20041;-80
2023/12/29 00:52:25;;;;;;;281.70;166.70;;;1.50;99.90;;;;;;4981789;28;20046;-80
2023/12/29 00:54:54;;;;;;;203.13;127.15;;;1.50;99.90;;;;;;4979307;28;20062;-82
2023/12/29 00:57:21;;;;;;;195.43;121.90;;;1.40;99.90;;;;;;4977203;28;20046;-82
2023/12/29 00:59:49;;;;;;;186.68;118.50;;;1.30;99.90;;;;;;5002222;28;20034;-82
2023/12/29 01:02:17;;;;;;;198.38;119.15;;;1.30;99.90;;;;;;4985228;28;20050;-83
2023/12/29 01:04:44;;;;;;;225.50;136.75;;;1.30;99.90;;;;;;4993704;28;20054;-81
2023/12/29 01:07:12;;;;;;;230.75;141.60;;;1.50;99.90;;;;;;4975141;28;20457;-81
2023/12/29 01:09:41;;;;;;;233.77;143.70;;;1.50;99.90;;;;;;4973359;28;20043;-81
2023/12/29 01:12:09;;;;;;;244.95;144.23;;;1.50;99.90;;;;;;4991397;28;20072;-82
2023/12/29 01:14:37;;;;;;;262.20;147.98;;;1.50;99.90;;;;;;4989753;28;20046;-81
2023/12/29 01:17:04;;;;;;;260.92;144.63;;;1.50;99.90;;;;;;4974269;28;20045;-82
2023/12/29 01:19:32;;;;;;;254.65;142.73;;;1.40;99.90;;;;;;4999526;28;20042;-82
2023/12/29 01:21:59;;;;;;;242.38;138.18;;;1.50;99.90;;;;;;4997406;28;20042;-81
2023/12/29 01:24:27;;;;;;;233.00;134.60;;;1.40;99.90;;;;;;5012720;28;20034;-81
2023/12/29 01:26:55;;;;;;;233.77;135.77;;;1.40;99.90;;;;;;5006506;28;20068;-82
2023/12/29 01:29:23;;;;;;;226.82;135.10;;;1.40;99.90;;;;;;5008805;28;20082;-82
2023/12/29 01:31:52;;;;;;;232.20;133.55;;;1.50;99.90;;;;;;4997884;28;20056;-83
2023/12/29 01:34:19;;;;;;;238.25;139.82;;;1.50;99.90;;;;;;4992402;28;20050;-81
2023/12/29 01:36:47;;;;;;;229.15;138.98;;;1.40;99.90;;;;;;4990418;28;20375;-83
2023/12/29 01:39:14;;;;;;;240.93;141.82;;;1.20;99.90;;;;;;4974228;28;20042;-82
2023/12/29 01:41:41;;;;;;;240.93;142.00;;;1.10;99.90;;;;;;4991840;28;20042;-81
2023/12/29 01:44:24;;;;;;;251.80;148.55;;;1.10;99.90;;;;;;4992279;28;20030;-81
2023/12/29 01:46:52;;;;;;;262.58;158.63;;;1.10;99.90;;;;;;4977419;28;20137;-81
2023/12/29 01:49:21;;;;;;;256.70;152.70;;;1.20;99.90;;;;;;4976090;28;20405;-79
2023/12/29 01:51:51;;;;;;;248.38;145.07;;;1.10;99.90;;;;;;4991693;28;20122;-81
2023/12/29 01:54:23;;;;;;;259.27;144.60;;;1.10;99.90;;;;;;4974234;28;20050;-80
2023/12/29 01:56:54;;;;;;;224.07;126.88;;;1.10;99.90;;;;;;4976774;28;20454;-81
2023/12/29 01:59:23;;;;;;;213.75;113.80;;;1.10;99.90;;;;;;4979901;28;20069;-82
2023/12/29 02:01:51;;;;;;;235.50;122.05;;;1.10;99.90;;;;;;5004315;28;20046;-79
2023/12/29 02:04:19;;;;;;;238.40;127.28;;;1.20;99.90;;;;;;4982255;28;20091;-82
2023/12/29 02:06:47;;;;;;;225.02;126.72;;;1.20;99.90;;;;;;4995735;28;20042;-83
2023/12/29 02:09:16;;;;;;;247.35;133.02;;;1.20;99.90;;;;;;5000572;28;20045;-81
2023/12/29 02:11:43;;;;;;;227.50;125.38;;;1.10;99.90;;;;;;5010769;28;20066;-81
2023/12/29 02:14:11;;;;;;;246.90;137.55;;;1.10;99.90;;;;;;5010131;28;20144;-81
2023/12/29 02:16:48;;;;;;;233.57;132.55;;;1.00;99.90;;;;;;4999367;28;20093;-81
2023/12/29 02:19:41;;;;;;;242.20;130.52;;;1.00;99.90;;;;;;4999421;28;20084;-81
2023/12/29 02:22:11;;;;;;;236.45;134.32;;;1.00;99.90;;;;;;4971605;28;20065;-81
2023/12/29 02:24:39;;;;;;;242.27;135.05;;;1.10;99.90;;;;;;4972776;28;20137;-81
2023/12/29 02:27:28;;;;;;;241.35;130.32;;;1.10;99.90;;;;;;4974037;28;20042;-80
2023/12/29 02:30:10;;;;;;;269.45;140.45;;;1.10;99.90;;;;;;4990290;28;20124;-80
2023/12/29 02:32:39;;;;;;;267.23;140.48;;;1.00;99.90;;;;;;4972687;28;20151;-82
2023/12/29 02:35:10;;;;;;;261.25;139.20;;;1.10;99.90;;;;;;4971940;28;20057;-82
2023/12/29 02:37:40;;;;;;;244.77;131.13;;;1.10;99.90;;;;;;4972899;28;20486;-81
2023/12/29 02:40:09;;;;;;;238.68;129.77;;;1.00;99.90;;;;;;5005430;28;20038;-81
2023/12/29 02:42:38;;;;;;;228.27;126.70;;;1.10;99.90;;;;;;5016440;28;20022;-81
2023/12/29 02:45:06;;;;;;;215.27;117.68;;;1.10;99.90;;;;;;5000791;28;20034;-81
2023/12/29 02:47:34;;;;;;;211.88;112.75;;;1.10;99.90;;;;;;4996481;28;20136;-82
2023/12/29 02:50:01;;;;;;;209.70;117.20;;;1.20;99.90;;;;;;4991966;28;20034;-82
2023/12/29 02:52:30;;;;;;;218.40;112.55;;;1.20;99.90;;;;;;4976807;28;20455;-81
2023/12/29 02:54:58;;;;;;;239.02;133.57;;;1.20;99.90;;;;;;4992625;28;20441;-80
2023/12/29 02:57:25;;;;;;;237.68;127.45;;;1.30;99.90;;;;;;4994032;28;20042;-81
2023/12/29 02:59:54;;;;;;;226.77;123.32;;;1.30;99.90;;;;;;4993216;28;20042;-81
2023/12/29 03:02:21;;;;;;;216.57;121.00;;;1.20;99.90;;;;;;4993450;28;20556;-82
2023/12/29 03:04:49;;;;;;;202.55;114.45;;;1.20;99.90;;;;;;4977141;28;20046;-81
2023/12/29 03:07:17;;;;;;;212.30;118.93;;;1.30;99.90;;;;;;4975116;28;20129;-82
2023/12/29 03:09:45;;;;;;;393.92;194.52;;;1.20;99.90;;;;;;4975286;28;20046;-82
2023/12/29 03:12:13;;;;;;;310.33;158.63;;;1.20;99.90;;;;;;4990823;28;20129;-81
2023/12/29 03:14:40;;;;;;;262.55;139.85;;;1.10;99.90;;;;;;4974022;28;20458;-82
2023/12/29 03:17:09;;;;;;;240.50;118.97;;;1.10;99.90;;;;;;4992130;28;20046;-80
2023/12/29 03:19:36;;;;;;;222.90;116.65;;;1.00;99.90;;;;;;4991854;28;20062;-82
2023/12/29 03:22:04;;;;;;;233.07;121.47;;;1.10;99.90;;;;;;4990796;28;20038;-82
2023/12/29 03:24:32;;;;;;;244.52;123.57;;;1.10;99.90;;;;;;4992398;28;20038;-80
2023/12/29 03:27:00;;;;;;;275.63;130.77;;;1.10;99.90;;;;;;4963173;28;20078;-82
2023/12/29 03:29:27;;;;;;;244.57;122.97;;;1.00;99.90;;;;;;4961648;28;20042;-81
2023/12/29 03:31:54;;;;;;;291.30;123.97;;;1.00;99.90;;;;;;4962643;28;20046;-80
2023/12/29 03:34:23;;;;;;;246.00;118.50;;;1.10;99.90;;;;;;4959896;28;20125;-82
2023/12/29 03:36:50;;;;;;;225.75;116.65;;;1.10;99.90;;;;;;4961667;28;20043;-81
2023/12/29 03:39:19;;;;;;;240.45;115.30;;;1.00;99.90;;;;;;4963219;28;20097;-80
2023/12/29 03:41:47;;;;;;;239.18;112.82;;;1.00;99.90;;;;;;4962189;28;20051;-81
2023/12/29 03:44:15;;;;;;;254.93;131.43;;;1.10;99.90;;;;;;4963129;28;20047;-79
2023/12/29 03:46:43;;;;;;;250.18;132.38;;;1.00;99.90;;;;;;4960001;28;20070;-81
2023/12/29 03:49:10;;;;;;;236.07;124.25;;;1.00;99.90;;;;;;4960275;28;20131;-81
2023/12/29 03:51:39;;;;;;;212.35;115.82;;;1.00;99.90;;;;;;4961542;28;20066;-82
2023/12/29 03:54:06;;;;;;;209.10;112.32;;;1.10;99.90;;;;;;4962821;28;20043;-82
2023/12/29 03:56:34;;;;;;;195.40;109.07;;;1.10;99.90;;;;;;4964391;28;20043;-80
2023/12/29 03:59:02;;;;;;;220.57;113.47;;;1.10;99.90;;;;;;4965678;28;20276;-82
2023/12/29 04:01:30;;;;;;;198.10;108.80;;;1.00;99.90;;;;;;4963192;28;20050;-81
2023/12/29 04:03:57;;;;;;;201.80;107.97;;;0.90;99.90;;;;;;4962009;28;20043;-80
2023/12/29 04:06:25;;;;;;;222.10;112.90;;;1.00;99.90;;;;;;4961825;28;20039;-82
2023/12/29 04:08:54;;;;;;;252.88;124.45;;;1.00;99.90;;;;;;4963344;28;20054;-80
2023/12/29 04:11:23;;;;;;;205.20;111.57;;;0.90;99.90;;;;;;4962383;28;20062;-82
2023/12/29 04:13:51;;;;;;;211.32;112.65;;;0.90;99.90;;;;;;4959643;28;20058;-82
2023/12/29 04:16:19;;;;;;;211.13;113.28;;;0.90;99.90;;;;;;4961223;28;20055;-82
2023/12/29 04:18:46;;;;;;;191.05;108.65;;;1.00;99.90;;;;;;4961213;28;20106;-82
2023/12/29 04:21:15;;;;;;;185.80;106.93;;;1.10;99.90;;;;;;4961159;28;20117;-81
2023/12/29 04:23:43;;;;;;;191.18;105.40;;;1.20;99.90;;;;;;4963507;28;20074;-83
2023/12/29 04:26:12;;;;;;;177.85;100.90;;;1.20;99.90;;;;;;4961300;28;20138;-82
2023/12/29 04:28:40;;;;;;;191.38;103.75;;;1.30;99.90;;;;;;4960596;28;20043;-81
2023/12/29 04:31:07;;;;;;;193.32;108.57;;;1.40;99.90;;;;;;4962597;28;20576;-81
2023/12/29 04:33:35;;;;;;;203.50;111.93;;;1.50;99.90;;;;;;4960949;28;20399;-82
2023/12/29 04:36:04;;;;;;;182.07;104.03;;;1.50;99.90;;;;;;4960116;28;20053;-82
2023/12/29 04:38:33;;;;;;;188.27;105.25;;;1.50;99.90;;;;;;4963342;28;20063;-82
2023/12/29 04:41:00;;;;;;;194.50;106.78;;;1.50;99.90;;;;;;4960700;28;20051;-82
2023/12/29 04:43:32;;;;;;;198.05;107.18;;;1.40;99.90;;;;;;4962294;28;20502;-82
2023/12/29 04:46:00;;;;;;;213.38;111.18;;;1.50;99.90;;;;;;4960430;28;20039;-81
2023/12/29 04:48:27;;;;;;;200.48;109.82;;;1.50;99.90;;;;;;4959854;28;20043;-81
2023/12/29 04:50:56;;;;;;;197.45;107.32;;;1.40;99.90;;;;;;4959528;28;20134;-81
2023/12/29 04:53:24;;;;;;;191.90;104.25;;;1.30;99.90;;;;;;4962577;28;20082;-81
2023/12/29 04:55:51;;;;;;;186.75;103.50;;;1.20;99.90;;;;;;4961760;28;20549;-81
2023/12/29 04:58:19;;;;;;;180.07;98.03;;;1.30;99.90;;;;;;4963573;28;20059;-82
2023/12/29 05:00:47;;;;;;;190.02;104.72;;;1.30;99.90;;;;;;4965150;28;20507;-80
2023/12/29 05:03:15;;;;;;;199.40;108.05;;;1.40;99.90;;;;;;4964048;28;20054;-82
2023/12/29 05:05:42;;;;;;;192.60;103.18;;;1.30;99.90;;;;;;4961700;28;20590;-80
2023/12/29 05:08:10;;;;;;;189.45;100.80;;;1.30;99.90;;;;;;4963990;28;20047;-81
2023/12/29 05:10:38;;;;;;;184.93;99.10;;;1.30;99.90;;;;;;4961750;28;20114;-83
2023/12/29 05:13:05;;;;;;;190.95;103.28;;;1.30;99.90;;;;;;4961656;28;20051;-82
2023/12/29 05:15:34;;;;;;;191.38;99.30;;;1.40;99.90;;;;;;4979324;28;20057;-82
2023/12/29 05:18:03;;;;;;;203.45;105.60;;;1.40;99.90;;;;;;4963147;28;20035;-80
2023/12/29 05:20:30;;;;;;;188.02;105.72;;;1.40;99.90;;;;;;4961396;28;20043;-81
2023/12/29 05:22:58;;;;;;;195.48;105.70;;;1.40;99.90;;;;;;4962905;28;20055;-80
2023/12/29 05:25:26;;;;;;;205.30;106.95;;;1.40;99.90;;;;;;4968175;28;20081;-82
2023/12/29 05:27:53;;;;;;;188.45;101.28;;;1.50;99.90;;;;;;4991890;28;20046;-80
2023/12/29 05:30:20;;;;;;;192.10;101.07;;;1.50;99.90;;;;;;4991231;28;20077;-81
2023/12/29 05:32:54;;;;;;;225.82;107.97;;;1.40;99.90;;;;;;4973096;28;20066;-81
2023/12/29 05:35:22;;;;;;;198.63;105.90;;;1.30;99.90;;;;;;4989956;28;20113;-82
2023/12/29 05:37:50;;;;;;;189.25;102.40;;;1.30;99.90;;;;;;4990222;28;20050;-80
2023/12/29 05:40:17;;;;;;;201.68;96.88;;;1.30;99.90;;;;;;4973796;28;20038;-79
2023/12/29 05:42:45;;;;;;;224.20;93.10;;;1.30;99.90;;;;;;4990281;28;20073;-79
2023/12/29 05:45:13;;;;;;;156.35;82.05;;;1.00;99.90;;;;;;4989507;28;20042;-79
2023/12/29 05:47:40;;;;;;;144.90;78.82;;;1.10;99.90;;;;;;4993799;28;20038;-80
2023/12/29 05:50:08;;;;;;;143.70;80.25;;;1.10;99.90;;;;;;4993165;28;20049;-80
2023/12/29 05:52:37;;;;;;;153.85;87.00;;;1.10;99.90;;;;;;4992068;28;20109;-78
2023/12/29 05:55:05;;;;;;;187.25;91.93;;;1.20;99.90;;;;;;4988518;28;20049;-79
2023/12/29 05:57:32;;;;;;;144.45;77.93;;;1.30;99.90;;;;;;4990410;28;20038;-81
2023/12/29 06:00:01;;;;;;;131.10;74.68;;;1.40;99.90;;;;;;4990002;28;20053;-81
2023/12/29 06:02:39;;;;;;;130.85;73.63;;;1.40;99.90;;;;;;4990104;28;20046;-80
2023/12/29 06:05:07;;;;;;;140.90;77.97;;;1.50;99.90;;;;;;4989359;28;20479;-80
2023/12/29 06:07:35;;;;;;;189.98;96.15;;;1.50;99.90;;;;;;4989797;28;20042;-80
2023/12/29 06:10:04;;;;;;;190.45;100.03;;;1.50;99.90;;;;;;4990008;28;20146;-79
2023/12/29 06:12:32;;;;;;;204.15;106.97;;;1.50;99.90;;;;;;4990012;28;20042;-79
2023/12/29 06:14:59;;;;;;;177.18;85.38;;;1.50;99.90;;;;;;4989715;28;20046;-80
2023/12/29 06:17:27;;;;;;;192.80;101.60;;;1.50;99.90;;;;;;4990951;28;20116;-79
2023/12/29 06:19:54;;;;;;;216.13;108.03;;;1.40;99.90;;;;;;4976048;28;20305;-80
2023/12/29 06:22:21;;;;;;;239.77;114.60;;;1.40;99.90;;;;;;4993495;28;20097;-80
2023/12/29 06:24:49;;;;;;;210.70;107.97;;;1.40;99.90;;;;;;4993701;28;20050;-79
2023/12/29 06:27:18;;;;;;;180.70;91.07;;;1.40;99.90;;;;;;4992730;28;20074;-81
2023/12/29 06:29:46;;;;;;;196.38;102.72;;;1.50;99.90;;;;;;4992485;28;20070;-80
2023/12/29 06:32:13;;;;;;;192.95;101.82;;;1.50;99.90;;;;;;4993341;28;20552;-80
2023/12/29 06:34:42;;;;;;;195.73;102.53;;;1.50;99.90;;;;;;4992381;28;20100;-79
2023/12/29 06:37:09;;;;;;;179.95;97.78;;;1.50;99.90;;;;;;4993001;28;20124;-79
2023/12/29 06:39:37;;;;;;;195.88;103.40;;;1.60;99.90;;;;;;4993233;28;20035;-79
2023/12/29 06:42:05;;;;;;;167.32;95.80;;;1.60;99.90;;;;;;4993238;28;20035;-79
2023/12/29 06:44:34;;;;;;;181.38;95.75;;;1.70;99.90;;;;;;4992697;28;20042;-80
2023/12/29 06:47:01;;;;;;;169.68;95.53;;;1.70;99.90;;;;;;4993029;28;20053;-80
2023/12/29 06:49:28;;;;;;;185.93;100.35;;;1.70;99.90;;;;;;4993089;28;20465;-80
2023/12/29 06:51:56;;;;;;;168.63;96.00;;;1.70;99.90;;;;;;4994617;28;20050;-80
2023/12/29 06:54:23;;;;;;;154.73;90.13;;;1.70;99.90;;;;;;4976012;28;20092;-80
2023/12/29 06:56:51;;;;;;;147.02;85.00;;;1.70;99.90;;;;;;4976784;28;20117;-77
2023/12/29 06:59:19;;;;;;;165.20;92.95;;;1.70;99.90;;;;;;4992482;28;20192;-80
2023/12/29 07:01:48;;;;;;;171.27;96.43;;;1.80;99.90;;;;;;4996052;28;20041;-80
2023/12/29 07:04:16;;;;;;;170.27;100.43;;;1.80;99.90;;;;;;5006449;28;20102;-81
2023/12/29 07:06:44;;;;;;;178.55;102.05;;;1.80;99.90;;;;;;4986056;28;20050;-78
2023/12/29 07:09:11;;;;;;;169.55;99.22;;;1.90;99.90;;;;;;4983128;28;20054;-80
2023/12/29 07:11:39;;;;;;;160.32;97.90;;;1.90;99.90;;;;;;4996449;28;20516;-80
2023/12/29 07:14:06;;;;;;;183.75;100.97;;;1.90;99.90;;;;;;4993481;28;20038;-79
2023/12/29 07:16:33;;;;;;;173.07;105.55;;;1.90;99.90;;;;;;4992553;28;20046;-78
2023/12/29 07:19:03;;;;;;;181.43;107.22;;;2.00;99.90;;;;;;4994572;28;20034;-80
2023/12/29 07:21:30;;;;;;;192.05;109.53;;;2.00;99.90;;;;;;4992311;28;20038;-80
2023/12/29 07:23:57;;;;;;;201.23;111.60;;;2.00;99.90;;;;;;4992973;28;20133;-80
2023/12/29 07:26:25;;;;;;;204.05;115.40;;;2.00;99.90;;;;;;4992068;28;20054;-79
2023/12/29 07:28:54;;;;;;;195.40;114.22;;;2.00;99.90;;;;;;4991051;28;20070;-79
2023/12/29 07:31:21;;;;;;;182.52;106.30;;;2.10;99.90;;;;;;4991871;28;20125;-80
2023/12/29 07:33:49;;;;;;;184.50;106.57;;;2.10;99.90;;;;;;4974884;28;20034;-79
2023/12/29 07:36:18;;;;;;;174.98;106.22;;;2.20;99.90;;;;;;4991157;28;20046;-80
2023/12/29 07:38:46;;;;;;;182.05;108.68;;;2.20;99.90;;;;;;4992364;28;20097;-78
2023/12/29 07:41:14;;;;;;;186.80;111.05;;;2.30;99.90;;;;;;4992120;28;20042;-81
2023/12/29 07:43:42;;;;;;;170.18;104.82;;;2.30;99.90;;;;;;4991121;28;20030;-79
2023/12/29 07:46:09;;;;;;;184.25;111.70;;;2.20;99.90;;;;;;4991507;28;20049;-80
2023/12/29 07:48:36;;;;;;;184.30;115.40;;;2.30;99.90;;;;;;4991851;28;20137;-79
2023/12/29 07:51:06;;;;;;;175.50;108.57;;;2.40;99.90;;;;;;4992701;28;20102;-80
2023/12/29 07:53:35;;;;;;;181.68;109.55;;;2.40;99.90;;;;;;4992604;28;20044;-79
2023/12/29 07:56:03;;;;;;;197.40;117.38;;;2.50;99.90;;;;;;4990992;28;20039;-80
2023/12/29 07:58:31;;;;;;;153.73;97.75;;;2.50;99.90;;;;;;4991187;28;20125;-79
2023/12/29 08:00:58;;;;;;;170.75;107.10;;;2.50;99.90;;;;;;4991878;28;20046;-79
2023/12/29 08:03:26;;;;;;;171.13;105.50;;;2.50;99.90;;;;;;4992852;28;20050;-79
2023/12/29 08:05:54;;;;;;;158.00;98.80;;;2.80;99.90;;;;;;4974628;28;20113;-79
2023/12/29 08:08:21;;;;;;;151.63;93.18;;;3.10;99.90;;;;;;4992852;28;20077;-77
2023/12/29 08:10:50;;;;;;;134.18;88.32;;;3.30;99.90;;;;;;4996247;28;20038;-80
2023/12/29 08:13:18;;;;;;;141.82;93.03;;;3.40;99.90;;;;;;4994139;28;20034;-80
2023/12/29 08:15:45;;;;;;;126.40;85.07;;;3.60;61.00;;;;;;4992771;28;20452;-80
2023/12/29 08:18:13;;;;;;;136.70;86.53;;;3.70;13.50;;;;;;4992383;28;20048;-77
2023/12/29 08:20:40;;;;;;;136.65;88.70;;;3.80;1.00;;;;;;4992341;28;20430;-79
2023/12/29 08:23:08;;;;;;;156.98;97.35;;;4.00;1.00;;;;;;4992650;28;20112;-78
2023/12/29 08:25:36;;;;;;;165.50;101.35;;;4.10;1.00;;;;;;4990345;28;20051;-79
2023/12/29 08:28:06;;;;;;;162.30;102.28;;;4.20;99.90;;;;;;4991977;28;20035;-78
2023/12/29 08:30:37;;;;;;;150.68;94.53;;;4.10;99.90;;;;;;4992401;28;20049;-79
2023/12/29 08:33:04;;;;;;;126.35;78.07;;;4.20;99.90;;;;;;4992028;28;20046;-78
2023/12/29 08:35:32;;;;;;;150.25;91.05;;;4.30;99.90;;;;;;4991927;28;20492;-79
2023/12/29 08:37:59;;;;;;;161.32;94.47;;;4.30;99.90;;;;;;4991895;28;20046;-79
2023/12/29 08:40:26;;;;;;;142.52;86.90;;;4.30;1.00;;;;;;4989986;28;20049;-79
2023/12/29 08:42:54;;;;;;;146.68;89.72;;;4.50;1.00;;;;;;4991880;28;20588;-80
2023/12/29 08:45:24;;;;;;;155.95;96.75;;;4.70;1.00;;;;;;4991289;28;20050;-78
2023/12/29 08:47:51;;;;;;;153.23;95.72;;;4.90;99.90;;;;;;4991330;28;20121;-78
2023/12/29 08:50:18;;;;;;;149.02;95.10;;;5.00;1.00;;;;;;4990988;28;20073;-78
2023/12/29 08:52:46;;;;;;;130.68;83.35;;;5.10;1.00;;;;;;4992535;28;20093;-79
2023/12/29 08:55:14;;;;;;;130.93;83.72;;;5.30;1.00;;;;;;4977718;28;20070;-79
2023/12/29 08:57:41;;;;;;;145.07;87.75;;;5.40;1.00;;;;;;4990572;28;20112;-77
2023/12/29 09:00:10;;;;;;;155.98;93.63;;;5.50;1.00;;;;;;4991230;28;20125;-78
2023/12/29 09:02:39;;;;;;;146.45;90.60;;;5.70;1.00;;;;;;4991023;28;20039;-78
2023/12/29 09:05:08;;;;;;;183.45;109.28;;;5.80;1.00;;;;;;4990154;28;20057;-76
2023/12/29 09:07:35;;;;;;;183.55;110.38;;;6.00;1.00;;;;;;4990761;28;20038;-79
2023/12/29 09:10:03;;;;;;;176.20;114.68;;;6.20;1.00;;;;;;4991451;28;20048;-79
2023/12/29 09:12:30;;;;;;;194.05;117.53;;;6.40;1.00;;;;;;4990213;28;20038;-81
2023/12/29 09:14:58;;;;;;;190.38;120.05;;;6.50;99.90;;;;;;4990196;28;20569;-80
2023/12/29 09:17:25;;;;;;;199.80;126.55;;;6.80;99.90;;;;;;4990688;28;20034;-80
2023/12/29 09:19:54;;;;;;;194.10;123.82;;;6.90;1.00;;;;;;4991427;28;20046;-77
2023/12/29 09:22:22;;;;;;;193.90;126.32;;;7.00;1.00;;;;;;4973452;28;20042;-79
2023/12/29 09:24:49;;;;;;;189.10;123.03;;;7.20;99.90;;;;;;4990218;28;20076;-78
2023/12/29 09:27:17;;;;;;;188.07;119.93;;;7.40;7.00;;;;;;4996357;28;20054;-79
2023/12/29 09:29:44;;;;;;;176.18;114.63;;;7.60;99.90;;;;;;4993486;28;20042;-78
2023/12/29 09:32:12;;;;;;;169.13;113.85;;;7.70;1.00;;;;;;4991603;28;20422;-80
2023/12/29 09:34:39;;;;;;;168.52;106.68;;;8.00;99.90;;;;;;4991348;28;20141;-77
2023/12/29 09:37:08;;;;;;;148.85;97.28;;;8.20;1.00;;;;;;4991293;28;20049;-78
2023/12/29 09:39:36;;;;;;;149.50;95.50;;;8.40;99.90;;;;;;4991063;28;20050;-80
2023/12/29 09:42:05;;;;;;;182.23;114.18;;;8.50;99.90;;;;;;4990765;28;20042;-80
2023/12/29 09:44:34;;;;;;;153.73;96.75;;;8.70;99.90;;;;;;4989430;28;20042;-79
2023/12/29 09:47:04;;;;;;;135.82;91.18;;;8.80;99.90;;;;;;4989838;28;20048;-79
2023/12/29 09:49:38;;;;;;;148.98;93.45;;;8.90;1.00;;;;;;4972645;28;20061;-80
2023/12/29 09:52:10;;;;;;;143.57;97.18;;;9.00;1.00;;;;;;4997703;28;20098;-78
2023/12/29 09:54:38;;;;;;;159.93;104.75;;;9.00;99.90;;;;;;4996386;28;20042;-80
2023/12/29 09:57:06;;;;;;;159.98;103.95;;;9.00;99.90;;;;;;4997190;28;20065;-80
2023/12/29 09:59:37;;;;;;;164.85;111.45;;;9.00;1.00;;;;;;4996476;28;20069;-78
2023/12/29 10:02:06;;;;;;;166.35;108.20;;;9.00;99.90;;;;;;4996931;28;20060;-80
2023/12/29 10:04:35;;;;;;;169.45;110.43;;;9.00;1.00;;;;;;4979637;28;20053;-79
2023/12/29 10:07:07;;;;;;;165.50;107.78;;;9.20;99.90;;;;;;4980406;28;20042;-80
2023/12/29 10:09:38;;;;;;;163.55;108.75;;;9.40;1.00;;;;;;4998957;28;20042;-79
2023/12/29 10:12:10;;;;;;;164.65;109.25;;;9.60;1.00;;;;;;5016331;28;20033;-77
2023/12/29 10:14:47;;;;;;;157.30;106.28;;;9.80;99.90;;;;;;5012375;28;20014;-80
2023/12/29 10:17:25;;;;;;;166.30;110.28;;;10.00;99.90;;;;;;5007691;28;20038;-78
2023/12/29 10:20:04;;;;;;;150.73;99.07;;;10.20;1.00;;;;;;5011203;28;20073;-80
2023/12/29 10:22:43;;;;;;;167.20;109.25;;;10.00;1.00;;;;;;4998216;28;20069;-79
2023/12/29 10:25:13;;;;;;;195.75;124.78;;;10.20;1.00;;;;;;4996359;28;20129;-78
2023/12/29 10:27:44;;;;;;;186.93;118.03;;;10.40;1.00;;;;;;4996322;28;20038;-80
2023/12/29 10:30:13;;;;;;;190.95;120.07;;;10.60;99.90;;;;;;4996972;28;20038;-80
2023/12/29 10:32:41;;;;;;;184.13;120.65;;;10.80;26.80;;;;;;4996732;28;20042;-81
2023/12/29 10:35:12;;;;;;;165.50;105.68;;;11.00;1.00;;;;;;4997119;28;20038;-80
2023/12/29 10:37:39;;;;;;;151.68;102.32;;;11.10;1.00;;;;;;4997961;28;20043;-81
2023/12/29 10:42:57;;;;;;;132.93;91.03;;;11.10;99.90;;;;;;4950663;29;20044;-77
2023/12/29 10:45:27;;;;;;;144.10;99.32;;;11.20;99.90;;;;;;4961958;29;20473;-77
2023/12/29 10:47:55;;;;;;;164.80;108.75;;;11.30;99.90;;;;;;4927145;29;20083;-78
2023/12/29 10:50:27;;;;;;;164.88;109.05;;;11.50;58.10;;;;;;4926555;29;20114;-80
2023/12/29 10:53:16;;;;;;;167.27;110.43;;;11.60;94.80;;;;;;4927290;29;20051;-82
2023/12/29 10:55:44;;;;;;;165.60;112.03;;;11.80;1.00;;;;;;4948545;29;20110;-82
2023/12/29 10:58:20;;;;;;;166.38;107.75;;;11.90;1.00;;;;;;4949523;29;20063;-81
2023/12/29 11:00:50;;;;;;;161.30;108.50;;;12.00;1.00;;;;;;4944628;29;20048;-80
2023/12/29 11:03:24;;;;;;;160.40;106.78;;;12.10;1.00;;;;;;4931772;29;20048;-81
2023/12/29 11:06:03;;;;;;;156.38;103.47;;;12.10;1.00;;;;;;4938601;29;20056;-81
2023/12/29 11:08:36;;;;;;;157.02;103.63;;;12.20;1.00;;;;;;4939676;29;20055;-81
2023/12/29 11:11:09;;;;;;;156.07;105.53;;;12.20;1.00;;;;;;4944166;29;20040;-80
2023/12/29 11:13:48;;;;;;;154.57;102.75;;;12.30;1.00;;;;;;4943806;29;20110;-81
2023/12/29 11:16:24;;;;;;;155.63;110.35;;;12.40;1.00;;;;;;4934964;29;20074;-80
2023/12/29 11:18:54;;;;;;;164.05;112.88;;;12.40;1.00;;;;;;4928771;29;20051;-82
2023/12/29 11:21:27;;;;;;;164.70;111.38;;;12.50;99.90;;;;;;4930252;29;20034;-82
2023/12/29 11:24:09;;;;;;;187.07;123.78;;;12.50;99.90;;;;;;4945437;29;20499;-80
2023/12/29 11:26:39;;;;;;;274.48;187.35;;;12.50;99.90;;;;;;4947038;29;20047;-82
2023/12/29 11:29:15;;;;;;;292.67;196.38;;;12.60;99.90;;;;;;4949270;29;20035;-80
2023/12/29 11:31:45;;;;;;;287.27;196.55;;;12.50;99.90;;;;;;4934603;29;20138;-81
2023/12/29 11:38:48;;;;;;;276.27;190.07;;;12.60;99.90;;;;;;4867062;29;20163;-82
2023/12/29 11:41:38;;;;;;;280.70;195.23;;;12.60;99.90;;;;;;4854503;29;20073;-79
2023/12/29 11:44:11;;;;;;;282.00;190.48;;;12.30;99.90;;;;;;4865115;29;20053;-78
2023/12/29 11:50:00;;;;;;;265.20;172.18;;;12.00;99.90;;;;;;4872053;29;20082;-78
2023/12/29 11:52:36;;;;;;;249.73;168.75;;;11.90;99.90;;;;;;4851458;29;20050;-78
2023/12/29 11:55:10;;;;;;;268.13;176.02;;;12.00;99.90;;;;;;4840452;29;20046;-76
2023/12/29 11:57:38;;;;;;;273.10;182.02;;;12.00;99.90;;;;;;4845958;29;20083;-79
2023/12/29 12:00:09;;;;;;;264.98;177.40;;;11.90;99.90;;;;;;4845118;29;20488;-77
2023/12/29 12:02:41;;;;;;;268.38;180.05;;;11.80;99.90;;;;;;4847055;29;20064;-79
2023/12/29 12:05:11;;;;;;;276.30;184.50;;;11.90;99.90;;;;;;4852093;29;20103;-78
2023/12/29 12:08:08;;;;;;;269.13;177.65;;;11.80;99.90;;;;;;4838844;29;20069;-75
2023/12/29 12:10:38;;;;;;;271.70;183.73;;;11.60;99.90;;;;;;4779369;30;20055;-77
2023/12/29 12:13:06;;;;;;;258.08;179.25;;;11.60;1.00;;;;;;4767475;30;20070;-75
2023/12/29 12:15:38;;;;;;;265.45;178.43;;;11.60;1.00;;;;;;4858378;29;20743;-75
2023/12/29 12:18:09;;;;;;;271.45;183.73;;;11.70;1.00;;;;;;4860401;29;20465;-76
2023/12/29 12:20:39;;;;;;;265.50;182.98;;;11.70;1.00;;;;;;4879872;29;20041;-77
2023/12/29 12:23:14;;;;;;;276.70;187.90;;;11.70;1.00;;;;;;4885799;29;20049;-75
2023/12/29 12:25:42;;;;;;;277.40;190.82;;;11.60;1.00;;;;;;4883608;29;20045;-77
2023/12/29 12:28:11;;;;;;;300.30;196.77;;;11.50;1.00;;;;;;4876747;29;20041;-74
2023/12/29 12:30:40;;;;;;;288.38;196.60;;;11.60;1.00;;;;;;4868945;29;20060;-77
2023/12/29 12:33:11;;;;;;;298.13;200.63;;;11.60;1.00;;;;;;4883579;29;20026;-74
2023/12/29 12:35:40;;;;;;;294.42;197.15;;;11.60;1.00;;;;;;4883186;29;20540;-77
2023/12/29 12:38:17;;;;;;;291.33;192.57;;;11.70;1.00;;;;;;4874264;29;20057;-75